Time;durP1;ratioP1;P1;durP2;ratioP2;P2;SDS_P1;SDS_P2;PMS_P1;PMS_P2;Temp;Humidity;BMP_temperature;BMP_pressure;BME280_temperature;BME280_humidity;BME280_pressure;Samples;Min_cycle;Max_cycle;Signal;HPM_P1;HPM_P2
2021/07/17 00:00:39;;;;;;;4.60;3.00;;;17.70;99.90;;;;;;5028888;28;20096;-76
2021/07/17 00:03:05;;;;;;;4.50;3.15;;;17.70;99.90;;;;;;5033585;28;20025;-76
2021/07/17 00:05:31;;;;;;;3.88;2.72;;;17.70;99.90;;;;;;5036922;28;20380;-76
2021/07/17 00:07:57;;;;;;;5.57;3.10;;;17.60;99.90;;;;;;5028238;28;20092;-76
2021/07/17 00:10:44;;;;;;;5.57;3.05;;;17.60;99.90;;;;;;5028131;28;20022;-76
2021/07/17 00:13:09;;;;;;;5.22;2.80;;;17.60;99.90;;;;;;5031994;28;20017;-76
2021/07/17 00:15:36;;;;;;;5.80;3.17;;;17.50;99.90;;;;;;5037943;28;20029;-76
2021/07/17 00:18:03;;;;;;;3.75;2.90;;;17.50;99.90;;;;;;5028135;28;20033;-76
2021/07/17 00:20:28;;;;;;;3.75;3.00;;;17.40;99.90;;;;;;5032711;28;20044;-77
2021/07/17 00:22:54;;;;;;;4.07;3.03;;;17.40;99.90;;;;;;5042095;28;20029;-76
2021/07/17 00:25:21;;;;;;;4.68;2.78;;;17.30;99.90;;;;;;5028032;28;20093;-76
2021/07/17 00:27:48;;;;;;;4.00;3.22;;;17.20;99.90;;;;;;5031749;28;20017;-76
2021/07/17 00:30:15;;;;;;;3.28;2.70;;;17.20;99.90;;;;;;5032581;28;20071;-77
2021/07/17 00:32:41;;;;;;;8.52;3.03;;;17.20;99.90;;;;;;5036097;28;20025;-76
2021/07/17 00:35:08;;;;;;;7.97;3.47;;;17.10;99.90;;;;;;5042210;28;20052;-76
2021/07/17 00:37:34;;;;;;;3.50;2.70;;;17.10;99.90;;;;;;5026858;28;20087;-76
2021/07/17 00:40:00;;;;;;;5.25;2.92;;;17.10;99.90;;;;;;5027784;28;20559;-76
2021/07/17 00:42:26;;;;;;;4.25;3.33;;;17.00;99.90;;;;;;5027276;28;20392;-76
2021/07/17 00:44:51;;;;;;;4.82;3.10;;;17.10;99.90;;;;;;5027441;28;20037;-76
2021/07/17 00:47:17;;;;;;;5.88;2.83;;;17.00;99.90;;;;;;5027641;28;20052;-76
2021/07/17 00:49:43;;;;;;;5.72;3.10;;;17.10;99.90;;;;;;5027192;28;20068;-76
2021/07/17 00:52:09;;;;;;;4.78;3.03;;;17.00;99.90;;;;;;5032972;28;20059;-76
2021/07/17 00:54:35;;;;;;;5.28;3.15;;;17.00;99.90;;;;;;5046609;28;20068;-76
2021/07/17 00:57:02;;;;;;;3.78;3.38;;;17.00;99.90;;;;;;5043983;28;20025;-76
2021/07/17 00:59:31;;;;;;;4.22;3.13;;;16.90;99.90;;;;;;5034715;28;20025;-76
2021/07/17 01:01:58;;;;;;;4.05;3.03;;;16.90;99.90;;;;;;5020918;28;20767;-76
2021/07/17 01:04:24;;;;;;;4.25;2.92;;;16.80;99.90;;;;;;5043382;28;20749;-76
2021/07/17 01:06:50;;;;;;;5.22;3.30;;;16.80;99.90;;;;;;5027330;28;20038;-76
2021/07/17 01:09:16;;;;;;;5.43;3.40;;;16.80;99.90;;;;;;5029127;28;20108;-76
2021/07/17 01:11:42;;;;;;;5.57;3.20;;;16.70;99.90;;;;;;5039543;28;20096;-76
2021/07/17 01:14:07;;;;;;;6.22;3.88;;;16.70;99.90;;;;;;5027405;28;20108;-76
2021/07/17 01:16:33;;;;;;;5.95;4.78;;;16.70;99.90;;;;;;5040774;28;20458;-76
2021/07/17 01:18:59;;;;;;;8.93;4.72;;;16.60;99.90;;;;;;5039512;28;20770;-76
2021/07/17 01:21:26;;;;;;;11.68;5.43;;;16.60;99.90;;;;;;5011451;28;20061;-77
2021/07/17 01:23:52;;;;;;;7.53;5.03;;;16.60;99.90;;;;;;5027506;28;20030;-76
2021/07/17 01:26:18;;;;;;;8.30;4.60;;;16.60;99.90;;;;;;5028357;28;20025;-76
2021/07/17 01:28:43;;;;;;;6.80;5.10;;;16.50;99.90;;;;;;5027211;28;20032;-76
2021/07/17 01:31:09;;;;;;;7.65;4.53;;;16.60;99.90;;;;;;5009706;28;20026;-76
2021/07/17 01:33:35;;;;;;;5.60;4.45;;;16.60;99.90;;;;;;5023610;28;20382;-76
2021/07/17 01:36:01;;;;;;;5.65;4.30;;;16.60;99.90;;;;;;5026908;28;20025;-77
2021/07/17 01:38:27;;;;;;;6.25;4.25;;;16.60;99.90;;;;;;5026846;28;20106;-76
2021/07/17 01:40:53;;;;;;;7.13;4.05;;;16.60;99.90;;;;;;5027186;28;20026;-76
2021/07/17 01:43:19;;;;;;;5.97;4.60;;;16.60;99.90;;;;;;5028466;28;20017;-76
2021/07/17 01:45:45;;;;;;;8.02;4.65;;;16.60;99.90;;;;;;5038116;28;20112;-77
2021/07/17 01:48:12;;;;;;;5.30;4.78;;;16.60;99.90;;;;;;5037425;28;20518;-76
2021/07/17 01:50:39;;;;;;;8.80;4.15;;;16.60;99.90;;;;;;5030356;28;20039;-76
2021/07/17 01:53:06;;;;;;;6.90;4.95;;;16.60;99.90;;;;;;5030656;28;20036;-76
2021/07/17 01:55:32;;;;;;;8.13;5.05;;;16.70;99.90;;;;;;5030520;28;20146;-77
2021/07/17 01:57:59;;;;;;;7.90;5.45;;;16.70;99.90;;;;;;5040702;28;20167;-76
2021/07/17 02:00:25;;;;;;;5.68;5.10;;;16.70;99.90;;;;;;5049208;28;20456;-76
2021/07/17 02:02:51;;;;;;;5.70;5.10;;;16.70;99.90;;;;;;5044004;28;20052;-77
2021/07/17 02:05:18;;;;;;;6.93;4.90;;;16.70;99.90;;;;;;5043492;28;20706;-76
2021/07/17 02:07:44;;;;;;;6.55;5.45;;;16.70;99.90;;;;;;5030842;28;20724;-77
2021/07/17 02:10:25;;;;;;;8.75;5.32;;;16.70;99.90;;;;;;5030385;28;20632;-77
2021/07/17 02:13:10;;;;;;;7.22;5.05;;;16.70;99.90;;;;;;5030044;28;20022;-76
2021/07/17 02:15:41;;;;;;;10.80;5.18;;;16.70;99.90;;;;;;5030594;28;20025;-77
2021/07/17 02:18:07;;;;;;;6.20;4.82;;;16.70;99.90;;;;;;5012678;28;20033;-77
2021/07/17 02:20:33;;;;;;;6.97;5.18;;;16.70;99.90;;;;;;5031010;28;20021;-76
2021/07/17 02:22:58;;;;;;;6.85;4.97;;;16.70;99.90;;;;;;5030235;28;20083;-76
2021/07/17 02:25:24;;;;;;;7.20;5.10;;;16.70;99.90;;;;;;5029933;28;20031;-76
2021/07/17 02:27:50;;;;;;;7.13;5.18;;;16.60;99.90;;;;;;5046084;28;20100;-76
2021/07/17 02:30:16;;;;;;;17.23;5.60;;;16.60;99.90;;;;;;5040729;28;20482;-76
2021/07/17 02:32:41;;;;;;;11.10;5.55;;;16.60;99.90;;;;;;5029740;28;20422;-76
2021/07/17 02:35:08;;;;;;;7.72;5.97;;;16.60;99.90;;;;;;5030445;28;20110;-76
2021/07/17 02:37:33;;;;;;;6.35;5.50;;;16.60;99.90;;;;;;5029837;28;20167;-77
2021/07/17 02:39:59;;;;;;;8.15;5.90;;;16.60;99.90;;;;;;5029398;28;20025;-77
2021/07/17 02:42:25;;;;;;;8.48;5.60;;;16.60;99.90;;;;;;5031164;28;20026;-77
2021/07/17 02:44:51;;;;;;;10.32;6.80;;;16.50;99.90;;;;;;5025837;28;20060;-77
2021/07/17 02:47:17;;;;;;;9.15;6.32;;;16.60;99.90;;;;;;5029805;28;20063;-77
2021/07/17 02:49:43;;;;;;;9.60;6.60;;;16.50;99.90;;;;;;5011580;28;20061;-77
2021/07/17 02:52:09;;;;;;;6.82;6.05;;;16.50;99.90;;;;;;5029940;28;20090;-76
2021/07/17 02:54:34;;;;;;;8.25;6.03;;;16.50;99.90;;;;;;5041768;28;20044;-76
2021/07/17 02:57:00;;;;;;;7.60;6.40;;;16.50;99.90;;;;;;5043869;28;20030;-76
2021/07/17 02:59:26;;;;;;;9.63;5.97;;;16.50;99.90;;;;;;5022953;28;20106;-76
2021/07/17 03:01:51;;;;;;;7.10;6.47;;;16.50;99.90;;;;;;5045650;28;20027;-77
2021/07/17 03:04:17;;;;;;;6.97;6.20;;;16.50;99.90;;;;;;5044412;28;20415;-76
2021/07/17 03:06:43;;;;;;;8.57;6.78;;;16.50;99.90;;;;;;5029771;28;20029;-76
2021/07/17 03:09:08;;;;;;;9.18;6.20;;;16.50;99.90;;;;;;5029044;28;20832;-76
2021/07/17 03:11:34;;;;;;;9.85;6.38;;;16.40;99.90;;;;;;5029664;28;20399;-77
2021/07/17 03:14:00;;;;;;;7.45;6.15;;;16.40;99.90;;;;;;5029695;28;20765;-77
2021/07/17 03:16:26;;;;;;;8.55;7.43;;;16.40;99.90;;;;;;5029197;28;20522;-76
2021/07/17 03:18:53;;;;;;;8.95;6.57;;;16.40;99.90;;;;;;5029387;28;20156;-76
2021/07/17 03:21:19;;;;;;;8.18;6.30;;;16.30;99.90;;;;;;5017045;28;20025;-76
2021/07/17 03:23:44;;;;;;;7.57;6.68;;;16.30;99.90;;;;;;5037774;28;20552;-77
2021/07/17 03:26:10;;;;;;;12.13;6.97;;;16.30;99.90;;;;;;5030796;28;20021;-76
2021/07/17 03:28:36;;;;;;;11.43;6.93;;;16.30;99.90;;;;;;5039648;28;20037;-76
2021/07/17 03:31:02;;;;;;;8.88;7.20;;;16.20;99.90;;;;;;5030427;28;20033;-76
2021/07/17 03:33:29;;;;;;;10.02;7.22;;;16.20;99.90;;;;;;5041887;28;20065;-76
2021/07/17 03:35:57;;;;;;;11.65;8.10;;;16.20;99.90;;;;;;5042831;28;20506;-76
2021/07/17 03:38:23;;;;;;;8.25;6.72;;;16.20;99.90;;;;;;5030141;28;20028;-76
2021/07/17 03:40:48;;;;;;;9.50;7.50;;;16.20;99.90;;;;;;5030500;28;20029;-76
2021/07/17 03:43:14;;;;;;;9.60;7.60;;;16.30;99.90;;;;;;5029435;28;20021;-76
2021/07/17 03:45:40;;;;;;;10.65;7.72;;;16.30;99.90;;;;;;5029906;28;20387;-77
2021/07/17 03:48:05;;;;;;;11.50;7.57;;;16.30;99.90;;;;;;5031372;28;20033;-76
2021/07/17 03:50:32;;;;;;;8.07;7.25;;;16.30;99.90;;;;;;5040928;28;20133;-76
2021/07/17 03:52:57;;;;;;;10.68;8.10;;;16.40;99.90;;;;;;5028714;28;20029;-77
2021/07/17 03:55:23;;;;;;;10.00;8.40;;;16.40;99.90;;;;;;4992031;28;20399;-76
2021/07/17 03:57:48;;;;;;;11.90;9.00;;;16.40;99.90;;;;;;4989740;28;20025;-76
2021/07/17 04:00:15;;;;;;;11.43;8.40;;;16.50;99.90;;;;;;4988998;28;20084;-75
2021/07/17 04:02:44;;;;;;;10.57;8.43;;;16.50;99.90;;;;;;5003120;28;20109;-76
2021/07/17 04:05:12;;;;;;;10.38;8.40;;;16.50;99.90;;;;;;4988956;28;20251;-76
2021/07/17 04:07:38;;;;;;;12.52;10.23;;;16.50;99.90;;;;;;4993380;28;20371;-76
2021/07/17 04:10:05;;;;;;;10.40;9.27;;;16.60;99.90;;;;;;4997780;28;20037;-76
2021/07/17 04:12:32;;;;;;;12.20;9.50;;;16.60;99.90;;;;;;5005434;28;20036;-76
2021/07/17 04:14:58;;;;;;;12.80;10.68;;;16.60;99.90;;;;;;4999531;28;20109;-76
2021/07/17 04:17:24;;;;;;;18.55;10.60;;;16.60;99.90;;;;;;4988832;28;20034;-76
2021/07/17 04:19:50;;;;;;;15.73;11.45;;;16.70;99.90;;;;;;4989210;28;20506;-76
2021/07/17 04:22:16;;;;;;;14.63;11.30;;;16.70;99.90;;;;;;4987177;28;20026;-76
2021/07/17 04:24:41;;;;;;;16.02;11.77;;;16.70;99.90;;;;;;4987925;28;20030;-76
2021/07/17 04:27:07;;;;;;;18.38;11.75;;;16.80;99.90;;;;;;4998753;28;20030;-76
2021/07/17 04:29:33;;;;;;;17.30;12.48;;;16.80;99.90;;;;;;5005203;28;20479;-75
2021/07/17 04:31:58;;;;;;;15.35;12.25;;;16.80;99.90;;;;;;4988484;28;20023;-76
2021/07/17 04:34:24;;;;;;;18.10;12.15;;;16.90;99.90;;;;;;4988562;28;20113;-76
2021/07/17 04:36:50;;;;;;;16.13;11.30;;;16.80;99.90;;;;;;4989062;28;20124;-76
2021/07/17 04:39:16;;;;;;;13.27;11.40;;;16.90;99.90;;;;;;4988716;28;20030;-76
2021/07/17 04:41:42;;;;;;;14.80;12.07;;;16.90;99.90;;;;;;4986968;28;20022;-76
2021/07/17 04:44:07;;;;;;;14.85;12.27;;;16.90;99.90;;;;;;4988234;28;20034;-76
2021/07/17 04:46:33;;;;;;;19.55;13.30;;;16.90;99.90;;;;;;4986794;28;20023;-76
2021/07/17 04:48:59;;;;;;;15.77;12.75;;;17.00;99.90;;;;;;4994451;28;20023;-77
2021/07/17 04:51:25;;;;;;;15.55;13.68;;;17.00;99.90;;;;;;4991977;28;20422;-77
2021/07/17 04:53:51;;;;;;;15.95;13.55;;;17.00;99.90;;;;;;5006507;28;20663;-71
2021/07/17 04:56:16;;;;;;;16.95;14.45;;;17.00;99.90;;;;;;5038521;28;20162;-76
2021/07/17 04:58:42;;;;;;;22.77;13.93;;;17.10;99.90;;;;;;5029671;28;20382;-79
2021/07/17 05:01:07;;;;;;;26.20;14.52;;;17.10;99.90;;;;;;5043848;28;20386;-77
2021/07/17 05:03:35;;;;;;;23.27;14.93;;;17.10;99.90;;;;;;5034726;28;20021;-77
2021/07/17 05:06:01;;;;;;;17.50;14.10;;;17.10;99.90;;;;;;5026301;28;20025;-77
2021/07/17 05:08:27;;;;;;;21.15;14.48;;;17.10;99.90;;;;;;5009352;28;20112;-77
2021/07/17 05:10:52;;;;;;;23.02;15.10;;;17.20;99.90;;;;;;5027320;28;20570;-77
2021/07/17 05:13:18;;;;;;;19.90;15.25;;;17.20;99.90;;;;;;5027261;28;20021;-77
2021/07/17 05:15:44;;;;;;;22.85;15.05;;;17.20;99.90;;;;;;5026536;28;20032;-77
2021/07/17 05:18:12;;;;;;;25.92;16.25;;;17.20;99.90;;;;;;5026589;28;20036;-77
2021/07/17 05:20:39;;;;;;;26.48;18.10;;;17.20;99.90;;;;;;5027785;28;20078;-77
2021/07/17 05:23:05;;;;;;;24.58;17.77;;;17.30;99.90;;;;;;5027210;28;20036;-77
2021/07/17 05:25:30;;;;;;;25.30;18.90;;;17.30;99.90;;;;;;5026866;28;20034;-77
2021/07/17 05:27:56;;;;;;;30.13;19.05;;;17.30;99.90;;;;;;5041025;28;20036;-77
2021/07/17 05:30:22;;;;;;;30.77;20.25;;;17.40;99.90;;;;;;5027036;28;20026;-78
2021/07/17 05:32:47;;;;;;;30.10;19.98;;;17.40;99.90;;;;;;5026977;28;20479;-78
2021/07/17 05:35:13;;;;;;;29.92;21.95;;;17.40;99.90;;;;;;5027608;28;20036;-77
2021/07/17 05:37:39;;;;;;;31.92;22.20;;;17.50;99.90;;;;;;5046473;28;20095;-71
2021/07/17 05:40:06;;;;;;;38.03;23.60;;;17.50;99.90;;;;;;5052790;28;20103;-71
2021/07/17 05:42:31;;;;;;;32.90;23.77;;;17.60;99.90;;;;;;5040664;28;20030;-71
2021/07/17 05:44:57;;;;;;;33.80;22.65;;;17.60;99.90;;;;;;5050341;28;20500;-71
2021/07/17 05:47:23;;;;;;;39.88;25.02;;;17.60;99.90;;;;;;5042558;28;20061;-71
2021/07/17 05:49:48;;;;;;;41.45;26.80;;;17.70;99.90;;;;;;5048062;28;20036;-71
2021/07/17 05:52:14;;;;;;;40.28;27.67;;;17.70;99.90;;;;;;5052605;28;20021;-71
2021/07/17 05:54:40;;;;;;;38.35;26.13;;;17.70;99.90;;;;;;5052033;28;20049;-71
2021/07/17 05:57:06;;;;;;;40.42;26.60;;;17.80;99.90;;;;;;5056083;22;20144;-77
2021/07/17 05:59:32;;;;;;;39.72;26.20;;;17.80;99.90;;;;;;5042649;28;20029;-70
2021/07/17 06:01:58;;;;;;;36.50;26.08;;;17.90;99.90;;;;;;5049793;28;20029;-77
2021/07/17 06:04:23;;;;;;;35.08;25.80;;;17.90;99.90;;;;;;5015176;28;20032;-77
2021/07/17 06:06:49;;;;;;;39.33;27.15;;;18.00;99.90;;;;;;5034351;28;20057;-77
2021/07/17 06:09:14;;;;;;;38.60;27.08;;;18.00;99.90;;;;;;5026879;28;20544;-77
2021/07/17 06:11:40;;;;;;;40.97;26.75;;;18.00;99.90;;;;;;5009353;28;20053;-77
2021/07/17 06:14:06;;;;;;;39.10;26.58;;;18.00;99.90;;;;;;5026700;28;20029;-77
2021/07/17 06:16:31;;;;;;;41.65;26.77;;;18.00;99.90;;;;;;5026603;28;20502;-77
2021/07/17 06:18:57;;;;;;;34.83;26.50;;;18.00;99.90;;;;;;5008916;28;20063;-77
2021/07/17 06:21:23;;;;;;;39.25;26.67;;;18.00;99.90;;;;;;5026719;28;20461;-77
2021/07/17 06:23:48;;;;;;;40.20;25.42;;;18.10;99.90;;;;;;5028044;28;20068;-77
2021/07/17 06:26:14;;;;;;;34.97;24.85;;;18.20;99.90;;;;;;5036736;28;20076;-77
2021/07/17 06:28:39;;;;;;;39.15;26.13;;;18.20;99.90;;;;;;5014832;28;20075;-77
2021/07/17 06:31:05;;;;;;;37.80;25.75;;;18.20;99.90;;;;;;5040216;28;20031;-77
2021/07/17 06:33:30;;;;;;;37.65;25.70;;;18.20;99.90;;;;;;5035784;28;20018;-77
2021/07/17 06:35:56;;;;;;;31.85;23.92;;;18.20;99.90;;;;;;5049181;28;20029;-77
2021/07/17 06:38:21;;;;;;;32.88;23.20;;;18.30;99.90;;;;;;5035647;28;20455;-77
2021/07/17 06:40:47;;;;;;;31.08;23.38;;;18.20;99.90;;;;;;5036892;28;20029;-77
2021/07/17 06:43:12;;;;;;;34.05;23.63;;;18.20;99.90;;;;;;5036862;28;20109;-78
2021/07/17 06:45:38;;;;;;;31.40;24.17;;;18.40;99.90;;;;;;5035541;28;20045;-77
2021/07/17 06:48:04;;;;;;;33.45;21.50;;;18.50;99.90;;;;;;5038509;28;20869;-77
2021/07/17 06:50:30;;;;;;;30.42;22.88;;;18.50;99.90;;;;;;5033645;28;20026;-76
2021/07/17 06:52:55;;;;;;;34.25;23.13;;;18.60;99.90;;;;;;5038295;28;20474;-76
2021/07/17 06:55:21;;;;;;;29.17;21.23;;;18.70;99.90;;;;;;5016258;28;20025;-76
2021/07/17 06:57:46;;;;;;;27.33;20.10;;;18.70;99.90;;;;;;5017816;28;20045;-76
2021/07/17 07:00:15;;;;;;;30.40;21.10;;;18.70;99.90;;;;;;5035775;28;20087;-76
2021/07/17 07:02:41;;;;;;;32.38;22.15;;;18.70;99.90;;;;;;5042651;28;20048;-76
2021/07/17 07:05:07;;;;;;;27.30;20.25;;;18.80;99.90;;;;;;5029125;28;20030;-76
2021/07/17 07:07:33;;;;;;;30.45;20.65;;;18.80;99.90;;;;;;5028510;28;20029;-77
2021/07/17 07:09:59;;;;;;;28.60;20.92;;;18.70;99.90;;;;;;5028327;28;20127;-77
2021/07/17 07:12:24;;;;;;;26.35;20.95;;;18.80;99.90;;;;;;5028667;28;20041;-76
2021/07/17 07:14:50;;;;;;;31.58;20.92;;;18.70;99.90;;;;;;5028517;28;20018;-76
2021/07/17 07:17:15;;;;;;;27.60;18.83;;;18.70;99.90;;;;;;5028692;28;20021;-76
2021/07/17 07:19:41;;;;;;;24.75;19.23;;;18.70;99.90;;;;;;5028931;28;20033;-76
2021/07/17 07:22:07;;;;;;;23.88;18.58;;;18.70;99.90;;;;;;5028295;28;20781;-76
2021/07/17 07:24:32;;;;;;;36.20;20.58;;;18.70;99.90;;;;;;5028784;28;20025;-77
2021/07/17 07:26:58;;;;;;;24.23;19.27;;;18.80;99.90;;;;;;5037122;28;20033;-76
2021/07/17 07:29:25;;;;;;;29.42;19.95;;;18.90;99.90;;;;;;5027139;28;20995;-76
2021/07/17 07:31:51;;;;;;;26.67;18.75;;;19.00;99.90;;;;;;5028892;28;20018;-76
2021/07/17 07:34:17;;;;;;;25.17;18.75;;;18.90;99.90;;;;;;5028440;28;20041;-76
2021/07/17 07:36:43;;;;;;;22.83;18.52;;;18.90;99.90;;;;;;5028121;28;20052;-76
2021/07/17 07:39:09;;;;;;;25.25;18.02;;;18.80;99.90;;;;;;5010266;28;20029;-76
2021/07/17 07:41:35;;;;;;;20.40;17.88;;;18.80;99.90;;;;;;5026541;28;20112;-76
2021/07/17 07:44:00;;;;;;;24.42;18.05;;;18.90;99.90;;;;;;5028015;28;20098;-76
2021/07/17 07:46:26;;;;;;;27.92;17.52;;;18.80;99.90;;;;;;5027405;28;20482;-77
2021/07/17 07:48:52;;;;;;;21.77;18.27;;;18.90;99.90;;;;;;5027507;28;20033;-76
2021/07/17 07:51:17;;;;;;;25.65;18.30;;;18.90;99.90;;;;;;5027699;28;20055;-76
2021/07/17 07:53:43;;;;;;;25.95;19.35;;;19.00;99.90;;;;;;5045629;28;20474;-76
2021/07/17 07:56:08;;;;;;;25.55;18.77;;;19.00;99.90;;;;;;5044683;28;20029;-75
2021/07/17 07:58:34;;;;;;;23.75;18.80;;;19.00;99.90;;;;;;5042159;28;20045;-79
2021/07/17 08:01:00;;;;;;;23.00;17.92;;;19.10;99.90;;;;;;5031031;28;20032;-77
2021/07/17 08:03:25;;;;;;;23.98;17.13;;;19.10;99.90;;;;;;5031276;28;20495;-78
2021/07/17 08:05:51;;;;;;;25.60;18.83;;;19.20;99.90;;;;;;5016913;28;20033;-77
2021/07/17 08:08:17;;;;;;;21.98;16.35;;;19.10;99.90;;;;;;5032902;28;20099;-73
2021/07/17 08:10:42;;;;;;;25.48;19.42;;;19.30;99.90;;;;;;5036184;28;20040;-73
2021/07/17 08:13:08;;;;;;;22.55;18.65;;;19.20;99.90;;;;;;5035649;28;20458;-73
2021/07/17 08:15:34;;;;;;;26.13;18.95;;;19.20;99.90;;;;;;5053491;28;20017;-73
2021/07/17 08:17:59;;;;;;;28.42;18.58;;;19.20;99.90;;;;;;5053646;28;20023;-73
2021/07/17 08:20:25;;;;;;;32.00;19.25;;;19.10;99.90;;;;;;5053428;28;20032;-73
2021/07/17 08:22:51;;;;;;;21.23;16.92;;;19.10;99.90;;;;;;5053424;28;20029;-73
2021/07/17 08:25:17;;;;;;;27.90;17.67;;;19.20;99.90;;;;;;5043685;28;20148;-73
2021/07/17 08:27:43;;;;;;;27.30;18.55;;;19.20;99.90;;;;;;5033444;28;20416;-73
2021/07/17 08:30:11;;;;;;;29.42;17.58;;;19.30;99.90;;;;;;5033366;28;20026;-73
2021/07/17 08:32:37;;;;;;;22.83;16.85;;;19.30;99.90;;;;;;5033789;28;20176;-73
2021/07/17 08:35:03;;;;;;;24.38;17.38;;;19.30;99.90;;;;;;5033464;28;20100;-73
2021/07/17 08:37:29;;;;;;;22.45;16.58;;;19.30;99.90;;;;;;5049017;28;20032;-74
2021/07/17 08:39:54;;;;;;;22.58;17.63;;;19.40;99.90;;;;;;5053241;28;20033;-73
2021/07/17 08:42:21;;;;;;;24.70;17.83;;;19.40;99.90;;;;;;5053052;28;20108;-73
2021/07/17 08:44:48;;;;;;;21.88;16.88;;;19.40;99.90;;;;;;5053451;28;20029;-73
2021/07/17 08:47:16;;;;;;;23.95;17.80;;;19.30;99.90;;;;;;5053035;28;20051;-73
2021/07/17 08:49:43;;;;;;;28.60;17.10;;;19.40;99.90;;;;;;5038699;28;20029;-73
2021/07/17 08:52:10;;;;;;;26.83;17.63;;;19.30;99.90;;;;;;5053250;28;20033;-74
2021/07/17 08:54:40;;;;;;;28.10;18.88;;;19.40;99.90;;;;;;5053009;28;20411;-73
2021/07/17 08:57:09;;;;;;;27.58;16.67;;;19.30;99.90;;;;;;5052359;28;20064;-73
2021/07/17 08:59:36;;;;;;;23.48;16.75;;;19.50;99.90;;;;;;5052822;28;20024;-73
2021/07/17 09:02:02;;;;;;;23.67;17.08;;;19.60;99.90;;;;;;5052835;28;20473;-73
2021/07/17 09:04:28;;;;;;;23.60;16.25;;;19.80;99.90;;;;;;5052872;28;20029;-73
2021/07/17 09:06:53;;;;;;;24.80;17.80;;;20.00;99.90;;;;;;5040165;28;20323;-73
2021/07/17 09:09:34;;;;;;;24.15;17.13;;;20.00;99.90;;;;;;5051106;28;20032;-73
2021/07/17 09:12:00;;;;;;;26.02;17.13;;;20.10;99.90;;;;;;5052881;28;20028;-73
2021/07/17 09:14:40;;;;;;;24.73;16.05;;;20.10;99.90;;;;;;5052699;28;20013;-73
2021/07/17 09:17:06;;;;;;;26.10;16.77;;;20.20;99.90;;;;;;5040170;28;20099;-73
2021/07/17 09:19:33;;;;;;;22.73;17.13;;;20.20;99.90;;;;;;5037069;28;20025;-73
2021/07/17 09:21:59;;;;;;;24.25;16.08;;;20.30;99.90;;;;;;5052891;28;20017;-73
2021/07/17 09:24:25;;;;;;;21.42;16.10;;;20.30;99.90;;;;;;5052452;28;20025;-72
2021/07/17 09:27:02;;;;;;;19.98;14.63;;;20.20;99.90;;;;;;5052591;28;20027;-72
2021/07/17 09:29:38;;;;;;;24.42;17.17;;;20.20;99.90;;;;;;5052251;28;20040;-73
2021/07/17 09:32:05;;;;;;;37.15;16.52;;;20.20;99.90;;;;;;5052548;28;20025;-72
2021/07/17 09:34:32;;;;;;;23.65;16.55;;;20.30;99.90;;;;;;5052280;28;20029;-72
2021/07/17 09:37:05;;;;;;;24.85;16.38;;;20.40;99.90;;;;;;5052525;28;20143;-73
2021/07/17 09:39:34;;;;;;;21.13;16.35;;;20.50;99.90;;;;;;5052333;28;20044;-72
2021/07/17 09:42:05;;;;;;;27.17;16.67;;;20.50;99.90;;;;;;5052040;28;20025;-72
2021/07/17 09:44:32;;;;;;;20.75;16.25;;;20.40;99.90;;;;;;5020080;28;20063;-72
2021/07/17 09:46:59;;;;;;;22.80;17.58;;;20.20;99.90;;;;;;5045885;28;20033;-72
2021/07/17 09:49:26;;;;;;;23.80;17.08;;;20.10;99.90;;;;;;5052321;28;20424;-73
2021/07/17 09:52:13;;;;;;;25.70;17.55;;;20.00;99.90;;;;;;5050357;28;20381;-72
2021/07/17 09:54:40;;;;;;;23.52;17.25;;;20.00;99.90;;;;;;5051969;28;20366;-73
2021/07/17 09:57:07;;;;;;;23.35;17.48;;;20.00;99.90;;;;;;5051575;28;20466;-72
2021/07/17 09:59:32;;;;;;;21.60;16.60;;;19.90;99.90;;;;;;5041096;28;20059;-76
2021/07/17 10:01:58;;;;;;;23.45;16.45;;;19.90;99.90;;;;;;5039899;28;20057;-77
2021/07/17 10:04:23;;;;;;;24.48;16.60;;;19.90;99.90;;;;;;5030634;28;20731;-77
2021/07/17 10:06:59;;;;;;;24.05;16.30;;;19.80;99.90;;;;;;5035175;28;20037;-76
2021/07/17 10:09:30;;;;;;;21.83;15.80;;;19.80;99.90;;;;;;5027106;28;20040;-77
2021/07/17 10:12:07;;;;;;;24.42;17.27;;;19.70;99.90;;;;;;5026600;28;20132;-76
2021/07/17 10:14:34;;;;;;;27.67;17.77;;;19.60;99.90;;;;;;5026699;28;20024;-75
2021/07/17 10:17:10;;;;;;;26.40;17.92;;;19.60;99.90;;;;;;5026735;28;20032;-76
2021/07/17 10:19:38;;;;;;;28.55;18.48;;;19.60;99.90;;;;;;5009358;28;20644;-76
2021/07/17 10:22:05;;;;;;;26.00;19.48;;;19.40;99.90;;;;;;5026625;28;20033;-76
2021/07/17 10:24:30;;;;;;;27.42;19.17;;;19.40;99.90;;;;;;5027117;28;20025;-77
2021/07/17 10:26:57;;;;;;;31.70;19.25;;;19.30;99.90;;;;;;5038018;28;20059;-75
2021/07/17 10:29:24;;;;;;;30.70;20.23;;;19.20;99.90;;;;;;5033654;28;20489;-74
2021/07/17 10:31:51;;;;;;;28.58;19.63;;;19.10;99.90;;;;;;5029436;28;20098;-74
2021/07/17 10:34:18;;;;;;;29.48;21.20;;;19.00;99.90;;;;;;5028948;28;20804;-74
2021/07/17 10:37:02;;;;;;;28.05;20.45;;;18.90;99.90;;;;;;5029360;28;20471;-75
2021/07/17 10:39:34;;;;;;;31.88;20.63;;;18.90;99.90;;;;;;5028828;28;20075;-74
2021/07/17 10:42:07;;;;;;;28.27;20.77;;;18.90;99.90;;;;;;5036698;28;20041;-74
2021/07/17 10:44:59;;;;;;;32.17;21.90;;;18.80;99.90;;;;;;5049014;28;20215;-74
2021/07/17 10:47:37;;;;;;;32.28;21.92;;;18.80;99.90;;;;;;5025158;28;20049;-74
2021/07/17 10:50:03;;;;;;;30.10;19.02;;;18.70;99.90;;;;;;5028961;28;20037;-74
2021/07/17 10:52:36;;;;;;;31.10;20.95;;;18.70;99.90;;;;;;5029032;28;20108;-78
2021/07/17 10:55:36;;;;;;;27.60;20.92;;;18.70;99.90;;;;;;5039083;28;20053;-75
2021/07/17 10:58:11;;;;;;;29.23;21.05;;;18.70;99.90;;;;;;5038446;28;20464;-79
2021/07/17 11:00:43;;;;;;;28.13;21.23;;;18.80;99.90;;;;;;5022603;28;20501;-75
2021/07/17 11:03:29;;;;;;;33.38;21.33;;;18.80;99.90;;;;;;5037870;28;20044;-75
2021/07/17 11:05:55;;;;;;;26.77;20.02;;;18.80;99.90;;;;;;5027198;28;20871;-74
2021/07/17 11:08:34;;;;;;;27.33;20.60;;;18.70;99.90;;;;;;5037303;28;20033;-75
2021/07/17 11:11:00;;;;;;;31.45;20.95;;;18.70;99.90;;;;;;5045052;28;20036;-75
2021/07/17 11:13:36;;;;;;;32.08;21.42;;;18.70;99.90;;;;;;5046279;28;20035;-76
2021/07/17 11:16:03;;;;;;;32.90;21.17;;;18.80;99.90;;;;;;5045609;28;20079;-74
2021/07/17 11:18:35;;;;;;;29.17;20.33;;;18.80;99.90;;;;;;5046740;28;20421;-74
2021/07/17 11:21:04;;;;;;;33.78;20.70;;;18.80;99.90;;;;;;5046497;28;20017;-75
2021/07/17 11:23:35;;;;;;;28.80;19.42;;;18.80;99.90;;;;;;5046462;28;20025;-75
2021/07/17 11:26:23;;;;;;;32.78;20.23;;;18.90;99.90;;;;;;5044102;28;20432;-75
2021/07/17 11:28:52;;;;;;;31.58;21.10;;;18.80;99.90;;;;;;5036059;28;20041;-74
2021/07/17 11:31:27;;;;;;;30.83;20.38;;;18.90;99.90;;;;;;5026886;28;20164;-75
2021/07/17 11:34:14;;;;;;;33.35;21.33;;;18.90;99.90;;;;;;5035166;28;20074;-74
2021/07/17 11:36:58;;;;;;;32.30;21.17;;;18.90;99.90;;;;;;5032711;28;20032;-74
2021/07/17 11:39:29;;;;;;;34.25;21.85;;;18.90;99.90;;;;;;5027986;28;20112;-74
2021/07/17 11:41:58;;;;;;;31.13;20.55;;;18.90;99.90;;;;;;5035299;28;20032;-74
2021/07/17 11:44:32;;;;;;;30.73;20.05;;;18.90;99.90;;;;;;5034245;28;20722;-75
2021/07/17 11:47:30;;;;;;;33.45;20.90;;;18.90;99.90;;;;;;5029748;28;20080;-74
2021/07/17 11:49:59;;;;;;;28.33;19.98;;;19.00;99.90;;;;;;5029645;28;20048;-75
2021/07/17 11:52:29;;;;;;;32.55;20.10;;;19.10;99.90;;;;;;5026879;28;20370;-74
2021/07/17 11:55:00;;;;;;;29.42;19.23;;;19.20;99.90;;;;;;5031580;28;20363;-73
2021/07/17 11:57:31;;;;;;;32.15;19.92;;;19.30;99.90;;;;;;5003984;28;20845;-74
2021/07/17 12:00:02;;;;;;;30.67;19.90;;;19.30;99.90;;;;;;4997671;28;20034;-73
2021/07/17 12:02:30;;;;;;;30.13;19.45;;;19.30;99.90;;;;;;4993667;28;20494;-73
2021/07/17 12:04:59;;;;;;;28.88;19.25;;;19.30;99.90;;;;;;4994500;28;20022;-73
2021/07/17 12:07:27;;;;;;;31.83;19.65;;;19.40;99.90;;;;;;5001442;28;20041;-74
2021/07/17 12:10:01;;;;;;;28.35;19.60;;;19.60;99.90;;;;;;4994586;28;20038;-74
2021/07/17 12:12:29;;;;;;;30.60;20.20;;;19.60;99.90;;;;;;4995456;28;20034;-74
2021/07/17 12:14:57;;;;;;;30.95;19.63;;;19.60;99.90;;;;;;4995614;28;20447;-74
2021/07/17 12:17:24;;;;;;;25.65;17.73;;;19.50;99.90;;;;;;4990330;28;20565;-75
2021/07/17 12:20:11;;;;;;;28.95;19.08;;;19.60;99.90;;;;;;4992257;28;20030;-75
2021/07/17 12:22:44;;;;;;;24.10;17.33;;;19.70;99.90;;;;;;4992371;28;20088;-75
2021/07/17 12:25:16;;;;;;;27.02;18.25;;;19.80;99.90;;;;;;5001537;28;20045;-75
2021/07/17 12:27:59;;;;;;;26.67;17.00;;;19.80;99.90;;;;;;5000296;28;20037;-73
2021/07/17 12:30:29;;;;;;;31.08;17.08;;;19.90;99.90;;;;;;4997280;28;20390;-73
2021/07/17 12:33:29;;;;;;;26.73;16.40;;;19.90;99.90;;;;;;4999987;28;20080;-73
2021/07/17 12:36:15;;;;;;;26.00;17.92;;;20.00;99.90;;;;;;4999294;28;20046;-73